sensor_id;sensor_type;location;lat;lon;timestamp;P1;durP1;ratioP1;P2;durP2;ratioP2
8550;SDS011;4313;42.000;21.380;2023-08-01T00:00:31;5.18;;;4.78;;
8550;SDS011;4313;42.000;21.380;2023-08-01T00:02:58;5.30;;;4.80;;
8550;SDS011;4313;42.000;21.380;2023-08-01T00:05:25;5.95;;;5.35;;
8550;SDS011;4313;42.000;21.380;2023-08-01T00:07:52;5.80;;;5.30;;
8550;SDS011;4313;42.000;21.380;2023-08-01T00:10:19;5.60;;;5.10;;
8550;SDS011;4313;42.000;21.380;2023-08-01T00:12:48;6.43;;;5.82;;
8550;SDS011;4313;42.000;21.380;2023-08-01T00:15:15;6.88;;;6.18;;
8550;SDS011;4313;42.000;21.380;2023-08-01T00:17:42;7.07;;;5.30;;
8550;SDS011;4313;42.000;21.380;2023-08-01T00:20:09;5.72;;;5.22;;
8550;SDS011;4313;42.000;21.380;2023-08-01T00:22:37;8.00;;;5.65;;
8550;SDS011;4313;42.000;21.380;2023-08-01T00:25:04;7.63;;;5.57;;
8550;SDS011;4313;42.000;21.380;2023-08-01T00:27:32;6.18;;;5.68;;
8550;SDS011;4313;42.000;21.380;2023-08-01T00:30:00;6.50;;;5.90;;
8550;SDS011;4313;42.000;21.380;2023-08-01T00:32:27;8.23;;;6.00;;
8550;SDS011;4313;42.000;21.380;2023-08-01T00:34:54;6.43;;;5.60;;
8550;SDS011;4313;42.000;21.380;2023-08-01T00:37:22;6.10;;;5.55;;
8550;SDS011;4313;42.000;21.380;2023-08-01T00:39:51;5.70;;;5.10;;
8550;SDS011;4313;42.000;21.380;2023-08-01T00:42:19;6.25;;;5.63;;
8550;SDS011;4313;42.000;21.380;2023-08-01T00:44:46;5.90;;;5.28;;
8550;SDS011;4313;42.000;21.380;2023-08-01T00:47:15;6.28;;;5.68;;
8550;SDS011;4313;42.000;21.380;2023-08-01T00:49:43;6.28;;;5.53;;
8550;SDS011;4313;42.000;21.380;2023-08-01T00:52:10;5.78;;;5.28;;
8550;SDS011;4313;42.000;21.380;2023-08-01T00:54:37;6.50;;;5.90;;
8550;SDS011;4313;42.000;21.380;2023-08-01T00:57:05;7.18;;;6.40;;
8550;SDS011;4313;42.000;21.380;2023-08-01T00:59:32;6.03;;;5.47;;
8550;SDS011;4313;42.000;21.380;2023-08-01T01:02:00;6.00;;;5.30;;
8550;SDS011;4313;42.000;21.380;2023-08-01T01:04:28;5.93;;;5.38;;
8550;SDS011;4313;42.000;21.380;2023-08-01T01:06:57;5.65;;;5.15;;
8550;SDS011;4313;42.000;21.380;2023-08-01T01:09:27;5.60;;;5.10;;
8550;SDS011;4313;42.000;21.380;2023-08-01T01:11:56;5.93;;;4.80;;
8550;SDS011;4313;42.000;21.380;2023-08-01T01:14:24;7.32;;;5.28;;
8550;SDS011;4313;42.000;21.380;2023-08-01T01:16:51;6.10;;;5.60;;
8550;SDS011;4313;42.000;21.380;2023-08-01T01:19:19;7.13;;;5.45;;
8550;SDS011;4313;42.000;21.380;2023-08-01T01:21:47;5.80;;;5.30;;
8550;SDS011;4313;42.000;21.380;2023-08-01T01:24:15;5.82;;;5.32;;
8550;SDS011;4313;42.000;21.380;2023-08-01T01:26:42;6.05;;;5.45;;
8550;SDS011;4313;42.000;21.380;2023-08-01T01:29:10;5.60;;;5.10;;
8550;SDS011;4313;42.000;21.380;2023-08-01T01:31:37;6.43;;;5.70;;
8550;SDS011;4313;42.000;21.380;2023-08-01T01:34:05;6.30;;;5.72;;
8550;SDS011;4313;42.000;21.380;2023-08-01T01:36:33;7.25;;;5.93;;
8550;SDS011;4313;42.000;21.380;2023-08-01T01:39:02;6.50;;;5.90;;
8550;SDS011;4313;42.000;21.380;2023-08-01T01:41:29;6.25;;;5.65;;
8550;SDS011;4313;42.000;21.380;2023-08-01T01:43:56;7.10;;;6.40;;
8550;SDS011;4313;42.000;21.380;2023-08-01T01:46:25;6.38;;;5.40;;
8550;SDS011;4313;42.000;21.380;2023-08-01T01:48:52;6.50;;;5.90;;
8550;SDS011;4313;42.000;21.380;2023-08-01T01:51:19;6.03;;;5.53;;
8550;SDS011;4313;42.000;21.380;2023-08-01T01:53:46;6.70;;;6.10;;
8550;SDS011;4313;42.000;21.380;2023-08-01T01:56:14;6.32;;;5.72;;
8550;SDS011;4313;42.000;21.380;2023-08-01T01:58:42;6.30;;;5.70;;
8550;SDS011;4313;42.000;21.380;2023-08-01T02:01:09;6.32;;;5.72;;
8550;SDS011;4313;42.000;21.380;2023-08-01T02:03:36;6.40;;;5.80;;
8550;SDS011;4313;42.000;21.380;2023-08-01T02:06:05;7.03;;;5.63;;
8550;SDS011;4313;42.000;21.380;2023-08-01T02:08:32;6.72;;;5.25;;
8550;SDS011;4313;42.000;21.380;2023-08-01T02:11:01;5.90;;;5.38;;
8550;SDS011;4313;42.000;21.380;2023-08-01T02:13:31;6.22;;;5.72;;
8550;SDS011;4313;42.000;21.380;2023-08-01T02:15:59;6.63;;;6.03;;
8550;SDS011;4313;42.000;21.380;2023-08-01T02:18:26;5.78;;;5.28;;
8550;SDS011;4313;42.000;21.380;2023-08-01T02:20:54;6.63;;;5.93;;
8550;SDS011;4313;42.000;21.380;2023-08-01T02:23:21;6.47;;;5.95;;
8550;SDS011;4313;42.000;21.380;2023-08-01T02:25:48;6.82;;;5.60;;
8550;SDS011;4313;42.000;21.380;2023-08-01T02:28:15;6.85;;;6.25;;
8550;SDS011;4313;42.000;21.380;2023-08-01T02:30:43;7.10;;;6.18;;
8550;SDS011;4313;42.000;21.380;2023-08-01T02:33:10;6.70;;;6.10;;
8550;SDS011;4313;42.000;21.380;2023-08-01T02:35:37;6.68;;;6.07;;
8550;SDS011;4313;42.000;21.380;2023-08-01T02:38:06;5.97;;;5.47;;
8550;SDS011;4313;42.000;21.380;2023-08-01T02:40:33;6.72;;;6.00;;
8550;SDS011;4313;42.000;21.380;2023-08-01T02:43:00;6.45;;;5.85;;
8550;SDS011;4313;42.000;21.380;2023-08-01T02:45:27;6.47;;;5.65;;
8550;SDS011;4313;42.000;21.380;2023-08-01T02:47:56;6.35;;;5.75;;
8550;SDS011;4313;42.000;21.380;2023-08-01T02:50:24;7.10;;;6.40;;
8550;SDS011;4313;42.000;21.380;2023-08-01T02:52:51;6.32;;;5.72;;
8550;SDS011;4313;42.000;21.380;2023-08-01T02:55:18;6.93;;;6.20;;
8550;SDS011;4313;42.000;21.380;2023-08-01T02:57:46;5.97;;;5.43;;
8550;SDS011;4313;42.000;21.380;2023-08-01T03:00:13;7.28;;;5.93;;
8550;SDS011;4313;42.000;21.380;2023-08-01T03:02:42;6.78;;;6.13;;
8550;SDS011;4313;42.000;21.380;2023-08-01T03:05:11;6.63;;;6.03;;
8550;SDS011;4313;42.000;21.380;2023-08-01T03:07:38;7.43;;;6.05;;
8550;SDS011;4313;42.000;21.380;2023-08-01T03:10:06;5.85;;;5.30;;
8550;SDS011;4313;42.000;21.380;2023-08-01T03:12:34;7.03;;;5.65;;
8550;SDS011;4313;42.000;21.380;2023-08-01T03:15:01;6.15;;;5.65;;
8550;SDS011;4313;42.000;21.380;2023-08-01T03:17:28;6.20;;;5.60;;
8550;SDS011;4313;42.000;21.380;2023-08-01T03:19:58;5.82;;;5.22;;
8550;SDS011;4313;42.000;21.380;2023-08-01T03:22:27;5.93;;;5.43;;
8550;SDS011;4313;42.000;21.380;2023-08-01T03:24:54;5.95;;;5.45;;
8550;SDS011;4313;42.000;21.380;2023-08-01T03:27:21;6.97;;;5.47;;
8550;SDS011;4313;42.000;21.380;2023-08-01T03:29:51;6.15;;;5.55;;
8550;SDS011;4313;42.000;21.380;2023-08-01T03:32:19;6.07;;;5.47;;
8550;SDS011;4313;42.000;21.380;2023-08-01T03:34:47;5.50;;;5.10;;
8550;SDS011;4313;42.000;21.380;2023-08-01T03:37:14;6.32;;;5.72;;
8550;SDS011;4313;42.000;21.380;2023-08-01T03:39:44;6.07;;;5.57;;
8550;SDS011;4313;42.000;21.380;2023-08-01T03:42:11;5.70;;;5.20;;
8550;SDS011;4313;42.000;21.380;2023-08-01T03:44:38;5.85;;;5.20;;
8550;SDS011;4313;42.000;21.380;2023-08-01T03:47:05;6.15;;;5.55;;
8550;SDS011;4313;42.000;21.380;2023-08-01T03:49:33;6.03;;;5.53;;
8550;SDS011;4313;42.000;21.380;2023-08-01T03:52:00;6.53;;;5.38;;
8550;SDS011;4313;42.000;21.380;2023-08-01T03:54:27;6.45;;;5.85;;
8550;SDS011;4313;42.000;21.380;2023-08-01T03:56:56;6.45;;;5.85;;
8550;SDS011;4313;42.000;21.380;2023-08-01T03:59:26;8.93;;;6.18;;
8550;SDS011;4313;42.000;21.380;2023-08-01T04:01:53;6.03;;;5.53;;
8550;SDS011;4313;42.000;21.380;2023-08-01T04:04:21;7.60;;;6.90;;
8550;SDS011;4313;42.000;21.380;2023-08-01T04:06:48;7.70;;;6.93;;
8550;SDS011;4313;42.000;21.380;2023-08-01T04:09:15;7.00;;;5.97;;
8550;SDS011;4313;42.000;21.380;2023-08-01T04:11:42;6.63;;;5.80;;
8550;SDS011;4313;42.000;21.380;2023-08-01T04:14:10;6.03;;;5.53;;
8550;SDS011;4313;42.000;21.380;2023-08-01T04:16:37;6.50;;;5.90;;
8550;SDS011;4313;42.000;21.380;2023-08-01T04:19:06;6.03;;;5.53;;
8550;SDS011;4313;42.000;21.380;2023-08-01T04:21:33;8.30;;;5.88;;
8550;SDS011;4313;42.000;21.380;2023-08-01T04:24:00;8.05;;;5.90;;
8550;SDS011;4313;42.000;21.380;2023-08-01T04:26:27;6.68;;;6.03;;
8550;SDS011;4313;42.000;21.380;2023-08-01T04:28:54;6.25;;;5.70;;
8550;SDS011;4313;42.000;21.380;2023-08-01T04:31:22;7.80;;;5.30;;
8550;SDS011;4313;42.000;21.380;2023-08-01T04:33:49;6.30;;;5.70;;
8550;SDS011;4313;42.000;21.380;2023-08-01T04:36:16;6.20;;;5.60;;
8550;SDS011;4313;42.000;21.380;2023-08-01T04:38:43;6.20;;;5.40;;
8550;SDS011;4313;42.000;21.380;2023-08-01T04:41:10;5.70;;;5.20;;
8550;SDS011;4313;42.000;21.380;2023-08-01T04:43:37;7.63;;;5.90;;
8550;SDS011;4313;42.000;21.380;2023-08-01T04:46:04;7.35;;;5.10;;
8550;SDS011;4313;42.000;21.380;2023-08-01T04:48:33;5.50;;;4.93;;
8550;SDS011;4313;42.000;21.380;2023-08-01T04:51:00;6.28;;;5.65;;
8550;SDS011;4313;42.000;21.380;2023-08-01T04:53:27;4.90;;;4.47;;
8550;SDS011;4313;42.000;21.380;2023-08-01T04:55:54;5.90;;;5.18;;
8550;SDS011;4313;42.000;21.380;2023-08-01T04:58:21;5.80;;;4.50;;
8550;SDS011;4313;42.000;21.380;2023-08-01T05:00:48;5.43;;;4.85;;
8550;SDS011;4313;42.000;21.380;2023-08-01T05:03:15;5.43;;;4.93;;
8550;SDS011;4313;42.000;21.380;2023-08-01T05:05:44;7.68;;;4.93;;
8550;SDS011;4313;42.000;21.380;2023-08-01T05:08:11;6.55;;;4.82;;
8550;SDS011;4313;42.000;21.380;2023-08-01T05:10:42;5.13;;;4.63;;
8550;SDS011;4313;42.000;21.380;2023-08-01T05:13:09;5.43;;;4.93;;
8550;SDS011;4313;42.000;21.380;2023-08-01T05:15:36;5.30;;;4.80;;
8550;SDS011;4313;42.000;21.380;2023-08-01T05:18:03;6.50;;;4.50;;
8550;SDS011;4313;42.000;21.380;2023-08-01T05:20:30;6.07;;;4.70;;
8550;SDS011;4313;42.000;21.380;2023-08-01T05:23:00;5.75;;;4.43;;
8550;SDS011;4313;42.000;21.380;2023-08-01T05:25:27;7.63;;;5.05;;
8550;SDS011;4313;42.000;21.380;2023-08-01T05:27:54;5.85;;;4.80;;
8550;SDS011;4313;42.000;21.380;2023-08-01T05:30:23;4.85;;;4.35;;
8550;SDS011;4313;42.000;21.380;2023-08-01T05:32:50;5.47;;;4.95;;
8550;SDS011;4313;42.000;21.380;2023-08-01T05:35:19;6.50;;;4.28;;
8550;SDS011;4313;42.000;21.380;2023-08-01T05:37:46;6.32;;;4.60;;
8550;SDS011;4313;42.000;21.380;2023-08-01T05:40:15;5.38;;;4.32;;
8550;SDS011;4313;42.000;21.380;2023-08-01T05:42:42;5.25;;;4.72;;
8550;SDS011;4313;42.000;21.380;2023-08-01T05:45:09;4.72;;;4.15;;
8550;SDS011;4313;42.000;21.380;2023-08-01T05:47:37;5.10;;;4.30;;
8550;SDS011;4313;42.000;21.380;2023-08-01T05:50:05;4.63;;;4.22;;
8550;SDS011;4313;42.000;21.380;2023-08-01T05:52:33;5.00;;;4.60;;
8550;SDS011;4313;42.000;21.380;2023-08-01T05:55:00;5.38;;;4.50;;
8550;SDS011;4313;42.000;21.380;2023-08-01T05:57:29;5.63;;;4.82;;
8550;SDS011;4313;42.000;21.380;2023-08-01T05:59:56;5.10;;;4.70;;
8550;SDS011;4313;42.000;21.380;2023-08-01T06:02:23;5.05;;;4.32;;
8550;SDS011;4313;42.000;21.380;2023-08-01T06:04:50;7.05;;;4.43;;
8550;SDS011;4313;42.000;21.380;2023-08-01T06:07:17;5.15;;;4.50;;
8550;SDS011;4313;42.000;21.380;2023-08-01T06:09:48;4.57;;;4.18;;
8550;SDS011;4313;42.000;21.380;2023-08-01T06:12:16;5.22;;;4.03;;
8550;SDS011;4313;42.000;21.380;2023-08-01T06:14:45;4.00;;;3.70;;
8550;SDS011;4313;42.000;21.380;2023-08-01T06:17:13;4.60;;;4.18;;
8550;SDS011;4313;42.000;21.380;2023-08-01T06:19:41;5.22;;;4.72;;
8550;SDS011;4313;42.000;21.380;2023-08-01T06:22:09;4.60;;;4.15;;
8550;SDS011;4313;42.000;21.380;2023-08-01T06:24:36;5.28;;;4.13;;
8550;SDS011;4313;42.000;21.380;2023-08-01T06:27:03;5.10;;;4.63;;
8550;SDS011;4313;42.000;21.380;2023-08-01T06:29:31;4.53;;;4.13;;
8550;SDS011;4313;42.000;21.380;2023-08-01T06:31:59;4.97;;;4.50;;
8550;SDS011;4313;42.000;21.380;2023-08-01T06:34:27;7.28;;;4.88;;
8550;SDS011;4313;42.000;21.380;2023-08-01T06:36:54;6.30;;;5.00;;
8550;SDS011;4313;42.000;21.380;2023-08-01T06:39:21;7.93;;;4.78;;
8550;SDS011;4313;42.000;21.380;2023-08-01T06:41:48;6.90;;;5.13;;
8550;SDS011;4313;42.000;21.380;2023-08-01T06:44:15;7.65;;;5.38;;
8550;SDS011;4313;42.000;21.380;2023-08-01T06:46:42;6.90;;;4.82;;
8550;SDS011;4313;42.000;21.380;2023-08-01T06:49:11;4.80;;;4.40;;
8550;SDS011;4313;42.000;21.380;2023-08-01T06:51:38;5.53;;;4.68;;
8550;SDS011;4313;42.000;21.380;2023-08-01T06:54:07;6.47;;;4.53;;
8550;SDS011;4313;42.000;21.380;2023-08-01T06:56:34;6.93;;;4.78;;
8550;SDS011;4313;42.000;21.380;2023-08-01T06:59:00;6.75;;;4.53;;
8550;SDS011;4313;42.000;21.380;2023-08-01T07:01:27;10.65;;;5.30;;
8550;SDS011;4313;42.000;21.380;2023-08-01T07:03:54;5.78;;;4.60;;
8550;SDS011;4313;42.000;21.380;2023-08-01T07:06:23;5.50;;;4.45;;
8550;SDS011;4313;42.000;21.380;2023-08-01T07:08:50;5.10;;;4.60;;
8550;SDS011;4313;42.000;21.380;2023-08-01T07:11:17;6.22;;;4.22;;
8550;SDS011;4313;42.000;21.380;2023-08-01T07:13:44;5.43;;;4.38;;
8550;SDS011;4313;42.000;21.380;2023-08-01T07:16:11;5.65;;;4.80;;
8550;SDS011;4313;42.000;21.380;2023-08-01T07:18:38;6.43;;;5.28;;
8550;SDS011;4313;42.000;21.380;2023-08-01T07:21:05;5.55;;;4.43;;
8550;SDS011;4313;42.000;21.380;2023-08-01T07:23:34;6.18;;;4.32;;
8550;SDS011;4313;42.000;21.380;2023-08-01T07:26:01;4.60;;;4.10;;
8550;SDS011;4313;42.000;21.380;2023-08-01T07:28:29;5.65;;;4.35;;
8550;SDS011;4313;42.000;21.380;2023-08-01T07:30:59;6.75;;;4.35;;
8550;SDS011;4313;42.000;21.380;2023-08-01T07:33:26;6.60;;;4.35;;
8550;SDS011;4313;42.000;21.380;2023-08-01T07:35:53;5.68;;;4.38;;
8550;SDS011;4313;42.000;21.380;2023-08-01T07:38:21;5.82;;;4.40;;
8550;SDS011;4313;42.000;21.380;2023-08-01T07:40:49;5.25;;;4.53;;
8550;SDS011;4313;42.000;21.380;2023-08-01T07:43:19;5.35;;;3.53;;
8550;SDS011;4313;42.000;21.380;2023-08-01T07:45:46;4.25;;;3.80;;
8550;SDS011;4313;42.000;21.380;2023-08-01T07:48:15;4.22;;;3.83;;
8550;SDS011;4313;42.000;21.380;2023-08-01T07:50:42;4.78;;;4.07;;
8550;SDS011;4313;42.000;21.380;2023-08-01T07:53:09;3.67;;;3.38;;
8550;SDS011;4313;42.000;21.380;2023-08-01T07:55:36;4.55;;;3.83;;
8550;SDS011;4313;42.000;21.380;2023-08-01T07:58:05;7.10;;;3.78;;
8550;SDS011;4313;42.000;21.380;2023-08-01T08:00:32;5.30;;;3.47;;
8550;SDS011;4313;42.000;21.380;2023-08-01T08:03:01;5.32;;;4.05;;
8550;SDS011;4313;42.000;21.380;2023-08-01T08:05:28;5.13;;;3.63;;
8550;SDS011;4313;42.000;21.380;2023-08-01T08:07:55;6.57;;;3.90;;
8550;SDS011;4313;42.000;21.380;2023-08-01T08:10:22;4.13;;;3.25;;
8550;SDS011;4313;42.000;21.380;2023-08-01T08:12:49;5.05;;;3.70;;
8550;SDS011;4313;42.000;21.380;2023-08-01T08:15:18;5.63;;;3.78;;
8550;SDS011;4313;42.000;21.380;2023-08-01T08:17:46;6.05;;;3.60;;
8550;SDS011;4313;42.000;21.380;2023-08-01T08:20:13;4.65;;;3.67;;
8550;SDS011;4313;42.000;21.380;2023-08-01T08:22:40;4.88;;;4.22;;
8550;SDS011;4313;42.000;21.380;2023-08-01T08:25:07;4.20;;;3.80;;
8550;SDS011;4313;42.000;21.380;2023-08-01T08:27:34;5.65;;;3.50;;
8550;SDS011;4313;42.000;21.380;2023-08-01T08:30:01;3.63;;;3.30;;
8550;SDS011;4313;42.000;21.380;2023-08-01T08:32:30;3.63;;;3.30;;
8550;SDS011;4313;42.000;21.380;2023-08-01T08:34:57;4.88;;;3.15;;
8550;SDS011;4313;42.000;21.380;2023-08-01T08:37:25;4.10;;;3.53;;
8550;SDS011;4313;42.000;21.380;2023-08-01T08:39:52;4.82;;;3.90;;
8550;SDS011;4313;42.000;21.380;2023-08-01T08:42:19;4.80;;;3.63;;
8550;SDS011;4313;42.000;21.380;2023-08-01T08:44:47;5.95;;;3.80;;
8550;SDS011;4313;42.000;21.380;2023-08-01T08:47:17;3.83;;;3.45;;
8550;SDS011;4313;42.000;21.380;2023-08-01T08:49:46;4.65;;;3.15;;
8550;SDS011;4313;42.000;21.380;2023-08-01T08:52:13;4.57;;;3.63;;
8550;SDS011;4313;42.000;21.380;2023-08-01T08:54:40;6.15;;;3.30;;
8550;SDS011;4313;42.000;21.380;2023-08-01T08:57:08;5.18;;;3.70;;
8550;SDS011;4313;42.000;21.380;2023-08-01T08:59:35;4.55;;;3.30;;
8550;SDS011;4313;42.000;21.380;2023-08-01T09:02:03;3.40;;;3.10;;
8550;SDS011;4313;42.000;21.380;2023-08-01T09:04:30;3.92;;;3.40;;
8550;SDS011;4313;42.000;21.380;2023-08-01T09:07:00;3.25;;;2.90;;
8550;SDS011;4313;42.000;21.380;2023-08-01T09:09:29;4.88;;;3.53;;
8550;SDS011;4313;42.000;21.380;2023-08-01T09:11:57;4.32;;;3.40;;
8550;SDS011;4313;42.000;21.380;2023-08-01T09:14:25;4.63;;;3.53;;
8550;SDS011;4313;42.000;21.380;2023-08-01T09:16:52;3.40;;;3.10;;
8550;SDS011;4313;42.000;21.380;2023-08-01T09:19:20;4.10;;;3.10;;
8550;SDS011;4313;42.000;21.380;2023-08-01T09:21:48;4.20;;;3.67;;
8550;SDS011;4313;42.000;21.380;2023-08-01T09:24:17;3.92;;;3.40;;
8550;SDS011;4313;42.000;21.380;2023-08-01T09:26:45;3.33;;;3.03;;
8550;SDS011;4313;42.000;21.380;2023-08-01T09:29:15;3.28;;;2.90;;
8550;SDS011;4313;42.000;21.380;2023-08-01T09:31:43;4.50;;;3.53;;
8550;SDS011;4313;42.000;21.380;2023-08-01T09:34:18;3.65;;;3.35;;
8550;SDS011;4313;42.000;21.380;2023-08-01T09:36:46;4.30;;;2.97;;
8550;SDS011;4313;42.000;21.380;2023-08-01T09:39:16;4.05;;;3.65;;
8550;SDS011;4313;42.000;21.380;2023-08-01T09:41:44;3.70;;;3.30;;
8550;SDS011;4313;42.000;21.380;2023-08-01T09:44:11;3.42;;;3.13;;
8550;SDS011;4313;42.000;21.380;2023-08-01T09:46:41;3.40;;;3.10;;
8550;SDS011;4313;42.000;21.380;2023-08-01T09:49:09;4.05;;;3.50;;
8550;SDS011;4313;42.000;21.380;2023-08-01T09:51:45;3.80;;;3.40;;
8550;SDS011;4313;42.000;21.380;2023-08-01T09:54:13;3.38;;;3.08;;
8550;SDS011;4313;42.000;21.380;2023-08-01T09:56:41;3.33;;;3.03;;
8550;SDS011;4313;42.000;21.380;2023-08-01T09:59:10;5.13;;;3.28;;
8550;SDS011;4313;42.000;21.380;2023-08-01T10:01:38;4.28;;;3.50;;
8550;SDS011;4313;42.000;21.380;2023-08-01T10:04:05;4.03;;;3.25;;
8550;SDS011;4313;42.000;21.380;2023-08-01T10:06:35;3.67;;;3.33;;
8550;SDS011;4313;42.000;21.380;2023-08-01T10:09:03;4.07;;;3.38;;
8550;SDS011;4313;42.000;21.380;2023-08-01T10:11:34;3.78;;;3.20;;
8550;SDS011;4313;42.000;21.380;2023-08-01T10:14:03;3.63;;;3.30;;
8550;SDS011;4313;42.000;21.380;2023-08-01T10:16:31;3.50;;;3.20;;
8550;SDS011;4313;42.000;21.380;2023-08-01T10:18:58;3.70;;;3.40;;
8550;SDS011;4313;42.000;21.380;2023-08-01T10:21:26;3.78;;;3.42;;
8550;SDS011;4313;42.000;21.380;2023-08-01T10:23:53;5.18;;;3.63;;
8550;SDS011;4313;42.000;21.380;2023-08-01T10:26:22;3.80;;;3.45;;
8550;SDS011;4313;42.000;21.380;2023-08-01T10:28:49;4.45;;;3.55;;
8550;SDS011;4313;42.000;21.380;2023-08-01T10:31:19;3.63;;;3.22;;
8550;SDS011;4313;42.000;21.380;2023-08-01T10:33:48;6.70;;;3.40;;
8550;SDS011;4313;42.000;21.380;2023-08-01T10:36:16;3.90;;;3.50;;
8550;SDS011;4313;42.000;21.380;2023-08-01T10:38:44;4.25;;;3.60;;
8550;SDS011;4313;42.000;21.380;2023-08-01T10:41:20;4.20;;;3.10;;
8550;SDS011;4313;42.000;21.380;2023-08-01T10:43:48;3.67;;;3.33;;
8550;SDS011;4313;42.000;21.380;2023-08-01T10:46:15;3.97;;;3.58;;
8550;SDS011;4313;42.000;21.380;2023-08-01T10:48:50;4.47;;;3.63;;
8550;SDS011;4313;42.000;21.380;2023-08-01T10:51:17;3.90;;;3.60;;
8550;SDS011;4313;42.000;21.380;2023-08-01T10:53:45;4.50;;;3.55;;
8550;SDS011;4313;42.000;21.380;2023-08-01T10:56:19;5.45;;;3.67;;
8550;SDS011;4313;42.000;21.380;2023-08-01T10:58:46;3.70;;;3.40;;
8550;SDS011;4313;42.000;21.380;2023-08-01T11:01:15;4.45;;;3.47;;
8550;SDS011;4313;42.000;21.380;2023-08-01T11:03:43;3.92;;;3.53;;
8550;SDS011;4313;42.000;21.380;2023-08-01T11:06:11;3.47;;;3.17;;
8550;SDS011;4313;42.000;21.380;2023-08-01T11:08:39;4.10;;;3.28;;
8550;SDS011;4313;42.000;21.380;2023-08-01T11:11:10;4.68;;;4.28;;
8550;SDS011;4313;42.000;21.380;2023-08-01T11:13:38;4.03;;;3.67;;
8550;SDS011;4313;42.000;21.380;2023-08-01T11:16:05;4.47;;;3.80;;
8550;SDS011;4313;42.000;21.380;2023-08-01T11:18:40;4.38;;;3.58;;
8550;SDS011;4313;42.000;21.380;2023-08-01T11:21:07;4.43;;;4.03;;
8550;SDS011;4313;42.000;21.380;2023-08-01T11:23:36;3.50;;;3.30;;
8550;SDS011;4313;42.000;21.380;2023-08-01T11:26:06;4.32;;;3.80;;
8550;SDS011;4313;42.000;21.380;2023-08-01T11:28:33;3.92;;;3.25;;
8550;SDS011;4313;42.000;21.380;2023-08-01T11:31:01;4.13;;;3.72;;
8550;SDS011;4313;42.000;21.380;2023-08-01T11:33:28;3.90;;;3.55;;
8550;SDS011;4313;42.000;21.380;2023-08-01T11:35:56;3.85;;;3.17;;
8550;SDS011;4313;42.000;21.380;2023-08-01T11:38:25;5.22;;;3.45;;
8550;SDS011;4313;42.000;21.380;2023-08-01T11:40:56;5.13;;;3.80;;
8550;SDS011;4313;42.000;21.380;2023-08-01T11:43:23;4.45;;;3.67;;
8550;SDS011;4313;42.000;21.380;2023-08-01T11:45:50;3.95;;;3.10;;
8550;SDS011;4313;42.000;21.380;2023-08-01T11:48:19;3.50;;;3.20;;
8550;SDS011;4313;42.000;21.380;2023-08-01T11:50:47;3.60;;;3.30;;
8550;SDS011;4313;42.000;21.380;2023-08-01T11:53:18;3.90;;;3.50;;
8550;SDS011;4313;42.000;21.380;2023-08-01T11:55:45;5.57;;;3.50;;
8550;SDS011;4313;42.000;21.380;2023-08-01T11:58:14;4.13;;;3.72;;
8550;SDS011;4313;42.000;21.380;2023-08-01T12:00:41;3.70;;;3.40;;
8550;SDS011;4313;42.000;21.380;2023-08-01T12:03:09;5.20;;;3.80;;
8550;SDS011;4313;42.000;21.380;2023-08-01T12:05:38;4.28;;;3.70;;
8550;SDS011;4313;42.000;21.380;2023-08-01T12:08:11;4.30;;;3.80;;
8550;SDS011;4313;42.000;21.380;2023-08-01T12:10:42;4.50;;;3.70;;
8550;SDS011;4313;42.000;21.380;2023-08-01T12:13:21;4.22;;;3.83;;
8550;SDS011;4313;42.000;21.380;2023-08-01T12:15:49;6.40;;;3.40;;
8550;SDS011;4313;42.000;21.380;2023-08-01T12:18:21;6.18;;;3.72;;
8550;SDS011;4313;42.000;21.380;2023-08-01T12:20:48;5.63;;;3.95;;
8550;SDS011;4313;42.000;21.380;2023-08-01T12:23:15;4.32;;;3.70;;
8550;SDS011;4313;42.000;21.380;2023-08-01T12:25:43;3.72;;;3.42;;
8550;SDS011;4313;42.000;21.380;2023-08-01T12:28:10;3.75;;;3.45;;
8550;SDS011;4313;42.000;21.380;2023-08-01T12:30:40;5.47;;;3.97;;
8550;SDS011;4313;42.000;21.380;2023-08-01T12:33:07;3.97;;;3.58;;
8550;SDS011;4313;42.000;21.380;2023-08-01T12:35:38;4.50;;;3.53;;
8550;SDS011;4313;42.000;21.380;2023-08-01T12:38:06;6.57;;;3.38;;
8550;SDS011;4313;42.000;21.380;2023-08-01T12:40:33;3.58;;;3.28;;
8550;SDS011;4313;42.000;21.380;2023-08-01T12:43:00;3.83;;;3.53;;
8550;SDS011;4313;42.000;21.380;2023-08-01T12:45:27;3.85;;;3.47;;
8550;SDS011;4313;42.000;21.380;2023-08-01T12:47:56;6.43;;;3.75;;
8550;SDS011;4313;42.000;21.380;2023-08-01T12:50:23;5.10;;;3.88;;
8550;SDS011;4313;42.000;21.380;2023-08-01T12:52:50;3.55;;;3.25;;
8550;SDS011;4313;42.000;21.380;2023-08-01T12:55:17;5.63;;;3.63;;
8550;SDS011;4313;42.000;21.380;2023-08-01T12:57:44;4.57;;;3.80;;
8550;SDS011;4313;42.000;21.380;2023-08-01T13:00:12;4.25;;;3.42;;
8550;SDS011;4313;42.000;21.380;2023-08-01T13:02:39;4.80;;;3.65;;
8550;SDS011;4313;42.000;21.380;2023-08-01T13:05:08;4.00;;;3.67;;
8550;SDS011;4313;42.000;21.380;2023-08-01T13:07:35;4.20;;;3.80;;
8550;SDS011;4313;42.000;21.380;2023-08-01T13:10:05;4.00;;;3.63;;
8550;SDS011;4313;42.000;21.380;2023-08-01T13:12:32;5.13;;;3.97;;
8550;SDS011;4313;42.000;21.380;2023-08-01T13:14:59;4.15;;;3.75;;
8550;SDS011;4313;42.000;21.380;2023-08-01T13:17:26;5.53;;;3.38;;
8550;SDS011;4313;42.000;21.380;2023-08-01T13:19:57;4.28;;;3.75;;
8550;SDS011;4313;42.000;21.380;2023-08-01T13:22:25;4.30;;;3.80;;
8550;SDS011;4313;42.000;21.380;2023-08-01T13:24:52;4.38;;;4.03;;
8550;SDS011;4313;42.000;21.380;2023-08-01T13:27:19;4.32;;;3.53;;
8550;SDS011;4313;42.000;21.380;2023-08-01T13:29:46;5.57;;;3.90;;
8550;SDS011;4313;42.000;21.380;2023-08-01T13:32:16;5.13;;;3.97;;
8550;SDS011;4313;42.000;21.380;2023-08-01T13:34:43;4.57;;;4.00;;
8550;SDS011;4313;42.000;21.380;2023-08-01T13:37:10;4.70;;;3.90;;
8550;SDS011;4313;42.000;21.380;2023-08-01T13:39:39;3.60;;;3.30;;
8550;SDS011;4313;42.000;21.380;2023-08-01T13:42:06;4.32;;;3.92;;
8550;SDS011;4313;42.000;21.380;2023-08-01T13:44:33;4.40;;;3.38;;
8550;SDS011;4313;42.000;21.380;2023-08-01T13:47:00;4.90;;;3.70;;
8550;SDS011;4313;42.000;21.380;2023-08-01T13:49:30;3.95;;;3.55;;
8550;SDS011;4313;42.000;21.380;2023-08-01T13:51:58;5.20;;;3.70;;
8550;SDS011;4313;42.000;21.380;2023-08-01T13:54:25;5.80;;;3.70;;
8550;SDS011;4313;42.000;21.380;2023-08-01T13:56:53;3.90;;;3.53;;
8550;SDS011;4313;42.000;21.380;2023-08-01T13:59:21;4.75;;;3.38;;
8550;SDS011;4313;42.000;21.380;2023-08-01T14:01:48;6.15;;;4.03;;
8550;SDS011;4313;42.000;21.380;2023-08-01T14:04:15;5.43;;;3.85;;
8550;SDS011;4313;42.000;21.380;2023-08-01T14:06:43;4.97;;;3.85;;
8550;SDS011;4313;42.000;21.380;2023-08-01T14:09:10;4.78;;;4.13;;
8550;SDS011;4313;42.000;21.380;2023-08-01T14:11:37;6.97;;;6.28;;
8550;SDS011;4313;42.000;21.380;2023-08-01T14:14:06;4.00;;;3.53;;
8550;SDS011;4313;42.000;21.380;2023-08-01T14:16:33;6.55;;;5.13;;
8550;SDS011;4313;42.000;21.380;2023-08-01T14:19:00;4.43;;;4.03;;
8550;SDS011;4313;42.000;21.380;2023-08-01T14:21:29;5.70;;;3.50;;
8550;SDS011;4313;42.000;21.380;2023-08-01T14:23:56;4.32;;;3.80;;
8550;SDS011;4313;42.000;21.380;2023-08-01T14:26:23;3.63;;;3.25;;
8550;SDS011;4313;42.000;21.380;2023-08-01T14:28:52;4.20;;;3.80;;
8550;SDS011;4313;42.000;21.380;2023-08-01T14:31:20;3.88;;;3.58;;
8550;SDS011;4313;42.000;21.380;2023-08-01T14:33:47;3.92;;;3.60;;
8550;SDS011;4313;42.000;21.380;2023-08-01T14:36:14;5.15;;;3.67;;
8550;SDS011;4313;42.000;21.380;2023-08-01T14:38:41;5.03;;;3.70;;
8550;SDS011;4313;42.000;21.380;2023-08-01T14:41:08;3.92;;;3.58;;
8550;SDS011;4313;42.000;21.380;2023-08-01T14:43:36;5.80;;;3.90;;
8550;SDS011;4313;42.000;21.380;2023-08-01T14:46:03;8.40;;;3.70;;
8550;SDS011;4313;42.000;21.380;2023-08-01T14:48:32;4.28;;;3.75;;
8550;SDS011;4313;42.000;21.380;2023-08-01T14:50:59;4.35;;;3.70;;
8550;SDS011;4313;42.000;21.380;2023-08-01T14:53:26;4.25;;;3.85;;
8550;SDS011;4313;42.000;21.380;2023-08-01T14:55:56;4.25;;;3.90;;
8550;SDS011;4313;42.000;21.380;2023-08-01T14:58:25;3.85;;;3.55;;
8550;SDS011;4313;42.000;21.380;2023-08-01T15:00:52;4.50;;;3.88;;
8550;SDS011;4313;42.000;21.380;2023-08-01T15:03:19;4.53;;;4.13;;